createdAt,value
2022-11-05T00:01:22.988Z,99.90
2022-11-05T00:04:10.323Z,99.90
2022-11-05T00:07:01.449Z,99.90
2022-11-05T00:09:40.301Z,99.90
2022-11-05T00:12:32.509Z,99.90
2022-11-05T00:15:19.633Z,99.90
2022-11-05T00:17:48.801Z,99.90
2022-11-05T00:20:17.989Z,99.90
2022-11-05T00:23:05.223Z,99.90
2022-11-05T00:25:34.776Z,99.90
2022-11-05T00:28:05.445Z,99.90
2022-11-05T00:30:34.524Z,99.90
2022-11-05T00:33:04.507Z,99.90
2022-11-05T00:35:33.654Z,99.90
2022-11-05T00:38:02.848Z,99.90
2022-11-05T00:40:32.055Z,99.90
2022-11-05T00:43:19.304Z,99.90
2022-11-05T00:45:48.477Z,99.90
2022-11-05T00:48:35.815Z,99.90
2022-11-05T00:51:05.041Z,99.90
2022-11-05T00:53:34.337Z,99.90
2022-11-05T00:56:03.851Z,99.90
2022-11-05T00:58:32.989Z,99.90
2022-11-05T01:01:04.588Z,99.90
2022-11-05T01:03:38.372Z,99.90
2022-11-05T01:06:17.523Z,99.90
2022-11-05T01:08:48.552Z,99.90
2022-11-05T01:11:36.337Z,99.90
2022-11-05T01:14:10.748Z,99.90
2022-11-05T01:16:41.939Z,99.90
2022-11-05T01:19:13.450Z,99.90
2022-11-05T01:21:42.648Z,99.90
2022-11-05T01:24:12.758Z,99.90
2022-11-05T01:26:41.959Z,99.90
2022-11-05T01:29:13.463Z,99.90
2022-11-05T01:31:43.249Z,99.90
2022-11-05T01:34:12.410Z,99.60
2022-11-05T01:36:41.638Z,99.40
2022-11-05T01:39:10.986Z,99.50
2022-11-05T01:41:40.142Z,99.50
2022-11-05T01:45:13.799Z,99.20
2022-11-05T01:48:17.680Z,99.10
2022-11-05T01:51:06.070Z,98.60
2022-11-05T01:53:42.592Z,98.60
2022-11-05T01:56:23.545Z,99.00
2022-11-05T01:59:04.377Z,98.30
2022-11-05T02:01:34.806Z,98.30
2022-11-05T02:04:10.087Z,98.20
2022-11-05T02:06:47.537Z,98.00
2022-11-05T02:09:49.427Z,97.50
2022-11-05T02:12:20.951Z,97.70
2022-11-05T02:14:50.252Z,96.90
2022-11-05T02:17:34.190Z,96.70
2022-11-05T02:20:18.285Z,96.60
2022-11-05T02:23:19.949Z,97.00
2022-11-05T02:26:25.700Z,96.70
2022-11-05T02:29:22.348Z,96.70
2022-11-05T02:32:32.659Z,96.40
2022-11-05T02:35:19.362Z,96.20
2022-11-05T02:38:00.910Z,96.10
2022-11-05T02:40:51.543Z,95.70
2022-11-05T02:43:46.747Z,95.30
2022-11-05T02:46:50.969Z,95.20
2022-11-05T02:49:54.895Z,94.80
2022-11-05T02:53:16.822Z,95.30
2022-11-05T02:56:11.979Z,95.00
2022-11-05T02:58:41.044Z,95.00
2022-11-05T03:01:13.612Z,94.70
2022-11-05T03:03:56.116Z,94.70
2022-11-05T03:07:02.294Z,95.00
2022-11-05T03:09:52.324Z,95.80
2022-11-05T03:13:01.154Z,95.10
2022-11-05T03:15:54.007Z,94.80
2022-11-05T03:18:48.791Z,94.60
2022-11-05T03:21:36.760Z,94.70
2022-11-05T03:24:24.691Z,95.00
2022-11-05T03:27:04.325Z,94.30
2022-11-05T03:29:48.870Z,94.00
2022-11-05T03:32:21.923Z,94.60
2022-11-05T03:35:00.232Z,93.80
2022-11-05T03:37:35.966Z,94.10
2022-11-05T03:40:09.986Z,93.80
2022-11-05T03:42:44.174Z,93.70
2022-11-05T03:45:24.941Z,93.60
2022-11-05T03:48:00.173Z,93.40
2022-11-05T03:50:41.450Z,93.40
2022-11-05T03:53:28.407Z,93.80
2022-11-05T03:56:24.367Z,92.90
2022-11-05T03:58:58.972Z,92.50
2022-11-05T04:01:31.391Z,92.50
2022-11-05T04:04:00.887Z,92.70
2022-11-05T04:06:48.133Z,92.40
2022-11-05T04:09:35.462Z,92.10
2022-11-05T04:12:23.189Z,92.20
2022-11-05T04:14:53.642Z,92.40
2022-11-05T04:17:22.870Z,92.20
2022-11-05T04:20:10.215Z,91.90
2022-11-05T04:22:58.135Z,92.00
2022-11-05T04:25:27.403Z,91.60
2022-11-05T04:28:01.729Z,91.20
2022-11-05T04:30:30.947Z,90.80
2022-11-05T04:33:11.790Z,90.90
2022-11-05T04:35:49.082Z,90.90
2022-11-05T04:38:21.150Z,90.60
2022-11-05T04:40:50.656Z,91.00
2022-11-05T04:43:21.400Z,89.90
2022-11-05T04:45:50.845Z,90.20
2022-11-05T04:48:19.987Z,90.00
2022-11-05T04:50:49.293Z,90.20
2022-11-05T04:53:18.399Z,90.00
2022-11-05T04:55:47.552Z,89.20
2022-11-05T04:58:16.752Z,88.70
2022-11-05T05:00:47.123Z,91.80
2022-11-05T05:03:16.435Z,90.00
2022-11-05T05:05:45.535Z,88.00
2022-11-05T05:08:14.741Z,88.50
2022-11-05T05:10:43.916Z,88.50
2022-11-05T05:13:14.167Z,88.80
2022-11-05T05:15:43.386Z,87.40
2022-11-05T05:18:12.530Z,87.40
2022-11-05T05:20:59.991Z,87.90
2022-11-05T05:23:29.415Z,88.50
2022-11-05T05:26:04.743Z,88.50
2022-11-05T05:28:34.547Z,90.50
2022-11-05T05:31:04.317Z,86.10
2022-11-05T05:33:33.483Z,83.80
2022-11-05T05:36:07.095Z,84.20
2022-11-05T05:38:40.977Z,83.50
2022-11-05T05:41:10.537Z,84.40
2022-11-05T05:43:39.691Z,85.90
2022-11-05T05:46:12.940Z,85.00
2022-11-05T05:48:43.067Z,83.70
2022-11-05T05:51:13.833Z,84.50
2022-11-05T05:53:42.945Z,84.50
2022-11-05T05:56:15.783Z,83.00
2022-11-05T05:58:44.956Z,83.70
2022-11-05T06:01:19.414Z,83.80
2022-11-05T06:03:50.816Z,81.80
2022-11-05T06:06:23.695Z,80.50
2022-11-05T06:08:52.835Z,80.80
2022-11-05T06:11:22.040Z,80.50
2022-11-05T06:13:51.530Z,81.70
2022-11-05T06:16:20.800Z,80.10
2022-11-05T06:18:50.180Z,80.30
2022-11-05T06:21:20.408Z,79.20
2022-11-05T06:23:50.734Z,78.60
2022-11-05T06:26:21.361Z,80.30
2022-11-05T06:28:50.578Z,79.60
2022-11-05T06:31:19.743Z,78.50
2022-11-05T06:33:49.521Z,79.70
2022-11-05T06:36:21.011Z,80.40
2022-11-05T06:38:50.204Z,79.10
2022-11-05T06:41:19.284Z,79.80
2022-11-05T06:43:48.414Z,79.60
2022-11-05T06:46:17.906Z,78.80
2022-11-05T06:48:47.070Z,79.50
2022-11-05T06:51:16.424Z,77.60
2022-11-05T06:53:45.649Z,77.70
2022-11-05T06:56:14.928Z,77.00
2022-11-05T06:58:44.499Z,78.10
2022-11-05T07:01:14.659Z,75.90
2022-11-05T07:03:45.674Z,76.60
2022-11-05T07:06:14.821Z,76.00
2022-11-05T07:08:44.013Z,76.10
2022-11-05T07:11:13.206Z,75.10
2022-11-05T07:13:42.453Z,76.00
2022-11-05T07:16:11.841Z,74.70
2022-11-05T07:18:41.005Z,75.60
2022-11-05T07:21:10.130Z,76.00
2022-11-05T07:23:39.302Z,75.30
2022-11-05T07:26:08.471Z,76.30
2022-11-05T07:28:37.681Z,76.00
2022-11-05T07:31:07.029Z,75.50
2022-11-05T07:33:36.844Z,75.50
2022-11-05T07:36:06.517Z,76.20
2022-11-05T07:38:35.799Z,76.00
2022-11-05T07:41:05.494Z,76.00
2022-11-05T07:43:34.602Z,76.40
2022-11-05T07:46:03.840Z,76.30
2022-11-05T07:48:32.990Z,76.40
2022-11-05T07:51:02.156Z,76.00
2022-11-05T07:53:31.343Z,76.10
2022-11-05T07:56:02.748Z,77.10
2022-11-05T07:58:32.070Z,77.30
2022-11-05T08:01:01.739Z,77.80
2022-11-05T08:03:31.625Z,77.40
2022-11-05T08:06:01.325Z,76.60
2022-11-05T08:08:30.544Z,76.30
2022-11-05T08:11:12.074Z,76.60
2022-11-05T08:13:41.421Z,75.50
2022-11-05T08:16:11.747Z,75.80
2022-11-05T08:18:41.054Z,76.40
2022-11-05T08:21:10.530Z,75.90
2022-11-05T08:23:40.313Z,75.60
2022-11-05T08:26:09.508Z,75.80
2022-11-05T08:28:38.718Z,75.50
2022-11-05T08:31:08.036Z,76.60
2022-11-05T08:33:37.259Z,75.00
2022-11-05T08:36:07.035Z,75.90
2022-11-05T08:38:36.267Z,74.50
2022-11-05T08:41:05.831Z,75.00
2022-11-05T08:43:34.983Z,75.10
2022-11-05T08:46:04.371Z,74.80
2022-11-05T08:48:33.523Z,74.60
2022-11-05T08:51:03.071Z,74.80
2022-11-05T08:53:32.278Z,74.80
2022-11-05T08:56:01.671Z,74.20
2022-11-05T08:58:30.870Z,74.40
2022-11-05T09:01:04.736Z,74.60
2022-11-05T09:03:34.427Z,75.40
2022-11-05T09:06:03.605Z,74.70
2022-11-05T09:08:32.791Z,75.40
2022-11-05T09:11:02.276Z,75.30
2022-11-05T09:13:31.465Z,75.60
2022-11-05T09:16:01.253Z,75.20
2022-11-05T09:18:30.748Z,75.50
2022-11-05T09:20:59.924Z,76.00
2022-11-05T09:23:29.057Z,75.30
2022-11-05T09:25:58.272Z,75.60
2022-11-05T09:28:29.189Z,76.20
2022-11-05T09:30:58.507Z,76.60
2022-11-05T09:33:29.107Z,76.60
2022-11-05T09:38:38.804Z,77.10
2022-11-05T09:41:38.518Z,77.60
2022-11-05T09:44:49.257Z,78.10
2022-11-05T09:47:29.085Z,78.40
2022-11-05T09:50:02.174Z,79.00
2022-11-05T09:52:35.367Z,78.80
2022-11-05T09:55:29.107Z,79.00
2022-11-05T09:58:03.596Z,79.40
2022-11-05T10:00:35.269Z,79.50
2022-11-05T10:03:16.631Z,79.60
2022-11-05T10:05:49.211Z,80.00
2022-11-05T10:08:44.301Z,80.80
2022-11-05T10:11:35.424Z,80.80
2022-11-05T10:14:43.157Z,81.40
2022-11-05T10:17:27.902Z,82.00
2022-11-05T10:20:15.070Z,82.40
2022-11-05T10:22:49.291Z,82.60
2022-11-05T10:25:22.496Z,83.10
2022-11-05T10:27:57.009Z,83.50
2022-11-05T10:30:26.241Z,84.00
2022-11-05T10:33:01.234Z,84.30
2022-11-05T10:35:35.343Z,84.70
2022-11-05T10:38:04.792Z,84.80
2022-11-05T10:41:04.723Z,85.20
2022-11-05T10:44:18.814Z,85.60
2022-11-05T10:47:20.063Z,86.10
2022-11-05T10:50:02.179Z,86.40
2022-11-05T10:52:50.316Z,87.20
2022-11-05T10:55:32.925Z,87.40
2022-11-05T10:58:25.841Z,86.50
2022-11-05T11:00:54.932Z,87.30
2022-11-05T11:03:54.798Z,88.10
2022-11-05T11:06:40.510Z,87.80
2022-11-05T11:09:30.442Z,87.90
2022-11-05T11:12:40.659Z,88.20
2022-11-05T11:15:24.003Z,88.60
2022-11-05T11:17:53.502Z,88.70
2022-11-05T11:20:32.743Z,88.80
2022-11-05T11:23:15.842Z,89.00
2022-11-05T11:26:01.568Z,89.60
2022-11-05T11:28:39.673Z,89.90
2022-11-05T11:31:19.138Z,89.90
2022-11-05T11:33:54.329Z,90.00
2022-11-05T11:36:33.494Z,90.10
2022-11-05T11:39:06.740Z,90.30
2022-11-05T11:41:44.014Z,90.10
2022-11-05T11:44:30.523Z,90.40
2022-11-05T11:47:10.511Z,90.40
2022-11-05T11:49:53.260Z,90.60
2022-11-05T11:52:36.382Z,90.70
2022-11-05T11:55:14.509Z,90.60
2022-11-05T11:57:54.474Z,90.80
2022-11-05T12:00:27.980Z,90.80
2022-11-05T12:03:14.893Z,91.20
2022-11-05T12:06:16.083Z,91.30
2022-11-05T12:09:29.352Z,91.50
2022-11-05T12:12:21.215Z,91.60
2022-11-05T12:15:00.226Z,92.00
2022-11-05T12:17:50.176Z,91.90
2022-11-05T12:20:57.991Z,92.00
2022-11-05T12:23:51.254Z,92.00
2022-11-05T12:26:46.927Z,92.00
2022-11-05T12:29:40.380Z,92.10
2022-11-05T12:32:50.392Z,92.40
2022-11-05T12:35:49.987Z,92.40
2022-11-05T12:38:46.973Z,92.40
2022-11-05T12:41:35.278Z,92.60
2022-11-05T12:44:33.264Z,92.90
2022-11-05T12:47:44.214Z,93.10
2022-11-05T12:50:56.660Z,93.40
2022-11-05T12:53:49.944Z,93.60
2022-11-05T12:56:59.755Z,94.20
2022-11-05T13:00:01.973Z,94.10
2022-11-05T13:02:47.811Z,94.60
2022-11-05T13:05:26.015Z,94.50
2022-11-05T13:08:16.996Z,94.90
2022-11-05T13:10:56.925Z,94.80
2022-11-05T13:13:43.610Z,95.00
2022-11-05T13:16:29.622Z,95.20
2022-11-05T13:19:18.958Z,95.30
2022-11-05T13:21:59.565Z,95.40
2022-11-05T13:24:46.617Z,95.50
2022-11-05T13:27:36.580Z,95.50
2022-11-05T13:30:08.841Z,95.70
2022-11-05T13:32:43.268Z,95.80
2022-11-05T13:35:46.170Z,95.70
2022-11-05T13:38:45.872Z,95.70
2022-11-05T13:41:37.461Z,95.80
2022-11-05T13:44:31.591Z,95.90
2022-11-05T13:47:22.691Z,95.90
2022-11-05T13:50:28.131Z,96.00
2022-11-05T13:53:23.154Z,96.00
2022-11-05T13:56:03.958Z,95.90
2022-11-05T13:59:06.769Z,96.00
2022-11-05T14:02:02.660Z,96.00
2022-11-05T14:04:48.649Z,96.10
2022-11-05T14:07:31.329Z,96.30
2022-11-05T14:10:32.500Z,96.40
2022-11-05T14:13:30.212Z,96.40
2022-11-05T14:16:17.403Z,96.30
2022-11-05T14:19:20.307Z,96.30
2022-11-05T14:21:50.688Z,96.50
2022-11-05T14:24:28.440Z,96.80
2022-11-05T14:27:03.675Z,96.60
2022-11-05T14:29:48.967Z,96.60
2022-11-05T14:32:26.945Z,96.60
2022-11-05T14:35:17.379Z,96.50
2022-11-05T14:37:59.009Z,96.40
2022-11-05T14:40:43.249Z,96.40
2022-11-05T14:43:25.791Z,96.50
2022-11-05T14:46:08.957Z,96.60
2022-11-05T14:49:08.141Z,96.50
2022-11-05T14:51:46.758Z,96.50
2022-11-05T14:54:22.034Z,96.60
2022-11-05T14:56:57.958Z,96.60
2022-11-05T14:59:29.221Z,96.80
2022-11-05T15:02:02.664Z,97.00
2022-11-05T15:04:41.419Z,97.40
2022-11-05T15:07:10.498Z,97.60
2022-11-05T15:09:56.014Z,97.90
2022-11-05T15:12:47.871Z,98.00
2022-11-05T15:15:32.897Z,98.20
2022-11-05T15:18:31.494Z,98.30
2022-11-05T15:21:05.843Z,98.60
2022-11-05T15:23:46.383Z,98.60
2022-11-05T15:26:46.048Z,98.60
2022-11-05T15:29:29.391Z,98.60
2022-11-05T15:32:00.517Z,98.90
2022-11-05T15:34:38.686Z,98.90
2022-11-05T15:37:14.533Z,99.10
2022-11-05T15:39:48.045Z,99.30
2022-11-05T15:42:23.248Z,99.30
2022-11-05T15:44:58.070Z,99.40
2022-11-05T15:47:30.003Z,99.50
2022-11-05T15:50:03.324Z,99.60
2022-11-05T15:52:52.617Z,99.80
2022-11-05T15:55:28.325Z,99.50
2022-11-05T15:58:08.189Z,99.70
2022-11-05T16:00:38.510Z,99.80
2022-11-05T16:03:21.090Z,99.90
2022-11-05T16:05:51.232Z,99.90
2022-11-05T16:08:35.238Z,99.90
2022-11-05T16:11:05.004Z,99.90
2022-11-05T16:13:41.086Z,99.90
2022-11-05T16:16:16.213Z,99.90
2022-11-05T16:18:47.094Z,99.90
2022-11-05T16:21:25.151Z,99.90
2022-11-05T16:23:57.826Z,99.90
2022-11-05T16:29:41.398Z,99.90
2022-11-05T16:32:39.950Z,99.90
2022-11-05T16:35:22.866Z,99.90
2022-11-05T16:37:53.807Z,99.90
2022-11-05T16:40:27.927Z,99.90
2022-11-05T16:43:29.712Z,99.90
2022-11-05T16:46:03.116Z,99.90
2022-11-05T16:48:32.168Z,99.80
2022-11-05T16:51:01.835Z,99.70
2022-11-05T16:53:30.964Z,99.70
2022-11-05T16:56:00.062Z,99.60
2022-11-05T16:58:29.319Z,99.60
2022-11-05T17:01:09.063Z,99.60
2022-11-05T17:03:38.279Z,99.60
2022-11-05T17:06:07.869Z,99.50
2022-11-05T17:08:37.564Z,99.70
2022-11-05T17:11:07.857Z,99.90
2022-11-05T17:13:37.042Z,99.60
2022-11-05T17:16:06.420Z,99.60
2022-11-05T17:18:35.492Z,99.60
2022-11-05T17:21:04.878Z,99.50
2022-11-05T17:23:35.258Z,99.60
2022-11-05T17:26:11.896Z,99.90
2022-11-05T17:28:41.803Z,99.50
2022-11-05T17:31:14.503Z,99.40
2022-11-05T17:33:44.089Z,99.50
2022-11-05T17:36:17.231Z,99.60
2022-11-05T17:38:47.099Z,99.50
2022-11-05T17:41:23.557Z,99.60
2022-11-05T17:43:58.827Z,99.60
2022-11-05T17:46:29.749Z,99.60
2022-11-05T17:48:58.937Z,99.60
2022-11-05T17:51:28.183Z,99.70
2022-11-05T17:53:57.353Z,99.60
2022-11-05T17:56:34.092Z,99.60
2022-11-05T17:59:05.168Z,99.70
2022-11-05T18:01:44.066Z,99.90
2022-11-05T18:04:13.665Z,99.90
2022-11-05T18:06:43.295Z,99.90
2022-11-05T18:09:15.059Z,99.90
2022-11-05T18:11:44.764Z,99.90
2022-11-05T18:14:13.960Z,99.90
2022-11-05T18:16:43.446Z,99.90
2022-11-05T18:19:12.745Z,99.90
2022-11-05T18:21:41.979Z,99.90
2022-11-05T18:24:11.495Z,99.90
2022-11-05T18:26:40.648Z,99.90
2022-11-05T18:29:09.894Z,99.90
2022-11-05T18:31:39.360Z,99.90
2022-11-05T18:34:08.766Z,99.90
2022-11-05T18:36:37.946Z,99.90
2022-11-05T18:39:07.884Z,99.90
2022-11-05T18:41:37.146Z,99.90
2022-11-05T18:44:07.074Z,99.90
2022-11-05T18:46:57.027Z,99.90
2022-11-05T18:49:26.097Z,99.90
2022-11-05T18:51:55.693Z,99.90
2022-11-05T18:54:24.945Z,99.90
2022-11-05T18:56:54.101Z,99.90
2022-11-05T18:59:37.107Z,99.90
2022-11-05T19:02:09.066Z,99.90
2022-11-05T19:04:39.389Z,99.90
2022-11-05T19:07:10.575Z,99.90
2022-11-05T19:09:41.093Z,99.90
2022-11-05T19:12:10.560Z,99.90
2022-11-05T19:14:39.682Z,99.90
2022-11-05T19:17:08.853Z,99.90
2022-11-05T19:19:38.758Z,99.90
2022-11-05T19:22:07.917Z,99.90
2022-11-05T19:24:37.106Z,99.90
2022-11-05T19:27:06.272Z,99.90
2022-11-05T19:29:35.579Z,99.90
2022-11-05T19:32:04.876Z,99.90
2022-11-05T19:34:34.012Z,99.90
2022-11-05T19:37:03.614Z,99.90
2022-11-05T19:39:33.505Z,99.90
2022-11-05T19:42:04.725Z,99.90
2022-11-05T19:44:34.544Z,99.90
2022-11-05T19:47:03.824Z,99.90
2022-11-05T19:49:33.035Z,99.90
2022-11-05T19:52:02.154Z,99.90
2022-11-05T19:54:31.430Z,99.90
2022-11-05T19:57:00.726Z,99.90
2022-11-05T19:59:29.934Z,99.90
2022-11-05T20:01:59.227Z,99.90
2022-11-05T20:04:28.491Z,99.90
2022-11-05T20:06:57.620Z,99.90
2022-11-05T20:09:26.865Z,99.90
2022-11-05T20:11:57.322Z,99.90
2022-11-05T20:14:27.723Z,99.90
2022-11-05T20:16:56.987Z,99.90
2022-11-05T20:19:26.226Z,99.90
2022-11-05T20:21:55.395Z,99.90
2022-11-05T20:24:25.616Z,99.90
2022-11-05T20:26:57.394Z,99.90
2022-11-05T20:29:33.927Z,99.90
2022-11-05T20:32:06.080Z,99.90
2022-11-05T20:34:36.354Z,99.90
2022-11-05T20:37:05.771Z,99.90
2022-11-05T20:39:35.655Z,99.90
2022-11-05T20:42:04.998Z,99.90
2022-11-05T20:44:34.190Z,99.90
2022-11-05T20:47:03.440Z,99.90
2022-11-05T20:49:32.626Z,99.90
2022-11-05T20:52:01.782Z,99.90
2022-11-05T20:54:30.903Z,99.90
2022-11-05T20:57:00.113Z,99.90
2022-11-05T20:59:31.750Z,99.90
2022-11-05T21:02:00.966Z,99.90
2022-11-05T21:04:30.302Z,99.90
2022-11-05T21:06:59.495Z,99.90
2022-11-05T21:09:28.793Z,99.90
2022-11-05T21:12:13.268Z,99.90
2022-11-05T21:14:44.516Z,99.90
2022-11-05T21:17:15.381Z,99.90
2022-11-05T21:19:44.611Z,99.90
2022-11-05T21:22:17.657Z,99.90
2022-11-05T21:24:46.775Z,99.90
2022-11-05T21:27:15.961Z,99.90
2022-11-05T21:29:45.191Z,99.90
2022-11-05T21:32:14.404Z,99.90
2022-11-05T21:34:43.634Z,99.90
2022-11-05T21:37:12.782Z,99.90
2022-11-05T21:39:42.645Z,99.90
2022-11-05T21:42:11.842Z,99.90
2022-11-05T21:44:41.025Z,99.90
2022-11-05T21:47:10.557Z,99.90
2022-11-05T21:49:39.930Z,99.90
2022-11-05T21:52:29.475Z,99.90
2022-11-05T21:55:17.636Z,99.90
2022-11-05T21:58:05.144Z,99.90
2022-11-05T22:00:34.383Z,99.90
2022-11-05T22:03:03.442Z,99.90
2022-11-05T22:05:32.806Z,99.90
2022-11-05T22:08:02.080Z,99.90
2022-11-05T22:10:31.148Z,99.90
2022-11-05T22:13:00.224Z,99.90
2022-11-05T22:15:30.075Z,99.90
2022-11-05T22:17:59.212Z,99.90
2022-11-05T22:20:28.351Z,99.90
2022-11-05T22:22:57.472Z,99.90
2022-11-05T22:25:26.598Z,99.90
2022-11-05T22:27:55.764Z,99.90
2022-11-05T22:30:24.825Z,99.90
2022-11-05T22:32:53.925Z,99.90
2022-11-05T22:35:23.045Z,99.90
2022-11-05T22:37:52.486Z,99.90
2022-11-05T22:40:23.958Z,99.90
2022-11-05T22:42:53.512Z,99.90
2022-11-05T22:45:22.634Z,99.90
2022-11-05T22:47:51.765Z,99.90
2022-11-05T22:50:20.977Z,99.90
2022-11-05T22:52:50.144Z,99.90
2022-11-05T22:55:19.454Z,99.90
2022-11-05T22:57:48.677Z,99.90
2022-11-05T23:00:19.765Z,99.90
2022-11-05T23:02:49.031Z,99.90
2022-11-05T23:05:18.437Z,99.90
2022-11-05T23:08:05.745Z,99.90
2022-11-05T23:10:53.285Z,99.90
2022-11-05T23:13:22.454Z,99.90
2022-11-05T23:16:09.781Z,99.90
2022-11-05T23:18:57.331Z,99.90
2022-11-05T23:21:44.573Z,99.90
2022-11-05T23:24:15.141Z,99.90
2022-11-05T23:26:53.403Z,99.90
2022-11-05T23:29:25.912Z,99.90
2022-11-05T23:32:14.099Z,99.90
2022-11-05T23:34:43.339Z,99.90
2022-11-05T23:37:30.956Z,99.90
2022-11-05T23:40:00.598Z,99.90
2022-11-05T23:42:47.674Z,99.90
2022-11-05T23:45:35.116Z,99.90
2022-11-05T23:48:36.622Z,99.90
2022-11-05T23:51:10.536Z,99.90
2022-11-05T23:53:42.543Z,99.90
2022-11-05T23:56:15.793Z,99.90
2022-11-05T23:58:45.056Z,99.90
